createdAt,value
2023-03-29T00:00:30.204Z,444.00
2023-03-29T00:01:36.172Z,444.00
2023-03-29T00:02:31.298Z,443.00
2023-03-29T00:03:30.312Z,443.00
2023-03-29T00:04:30.267Z,446.00
2023-03-29T00:05:30.202Z,447.00
2023-03-29T00:06:30.193Z,451.00
2023-03-29T00:07:30.322Z,450.00
2023-03-29T00:08:30.180Z,455.00
2023-03-29T00:09:30.188Z,453.00
2023-03-29T00:10:30.248Z,454.00
2023-03-29T00:11:30.219Z,451.00
2023-03-29T00:12:30.260Z,452.00
2023-03-29T00:13:30.315Z,452.00
2023-03-29T00:14:30.372Z,450.00
2023-03-29T00:15:30.420Z,449.00
2023-03-29T00:16:30.478Z,449.00
2023-03-29T00:17:30.520Z,449.00
2023-03-29T00:18:30.574Z,450.00
2023-03-29T00:19:30.607Z,451.00
2023-03-29T00:20:30.641Z,450.00
2023-03-29T00:21:30.714Z,449.00
2023-03-29T00:22:30.742Z,449.00
2023-03-29T00:23:30.798Z,449.00
2023-03-29T00:24:30.859Z,449.00
2023-03-29T00:25:30.907Z,447.00
2023-03-29T00:26:30.946Z,448.00
2023-03-29T00:27:31.004Z,444.00
2023-03-29T00:28:31.049Z,445.00
2023-03-29T00:29:31.106Z,445.00
2023-03-29T00:30:31.126Z,445.00
2023-03-29T00:31:31.240Z,446.00
2023-03-29T00:32:31.369Z,447.00
2023-03-29T00:33:31.296Z,447.00
2023-03-29T00:34:31.326Z,449.00
2023-03-29T00:35:31.378Z,451.00
2023-03-29T00:36:31.424Z,450.00
2023-03-29T00:37:31.498Z,450.00
2023-03-29T00:38:31.553Z,449.00
2023-03-29T00:39:31.592Z,449.00
2023-03-29T00:40:31.635Z,449.00
2023-03-29T00:41:31.680Z,451.00
2023-03-29T00:42:31.742Z,452.00
2023-03-29T00:43:31.774Z,453.00
2023-03-29T00:44:31.840Z,453.00
2023-03-29T00:45:31.874Z,450.00
2023-03-29T00:46:32.033Z,446.00
2023-03-29T00:47:31.998Z,445.00
2023-03-29T00:48:32.014Z,445.00
2023-03-29T00:49:32.078Z,445.00
2023-03-29T00:50:32.129Z,444.00
2023-03-29T00:51:32.173Z,446.00
2023-03-29T00:52:32.211Z,448.00
2023-03-29T00:53:32.277Z,448.00
2023-03-29T00:54:32.394Z,448.00
2023-03-29T00:55:32.410Z,448.00
2023-03-29T00:56:32.424Z,448.00
2023-03-29T00:57:32.501Z,450.00
2023-03-29T00:58:32.541Z,452.00
2023-03-29T00:59:32.626Z,454.00
2023-03-29T01:00:32.673Z,455.00
2023-03-29T01:01:32.712Z,452.00
2023-03-29T01:02:32.859Z,455.00
2023-03-29T01:03:32.975Z,454.00
2023-03-29T01:04:32.874Z,455.00
2023-03-29T01:05:32.921Z,454.00
2023-03-29T01:06:33.047Z,456.00
2023-03-29T01:07:33.041Z,456.00
2023-03-29T01:08:33.110Z,457.00
2023-03-29T01:09:33.144Z,456.00
2023-03-29T01:10:33.209Z,459.00
2023-03-29T01:11:33.239Z,456.00
2023-03-29T01:12:33.313Z,457.00
2023-03-29T01:13:33.349Z,456.00
2023-03-29T01:14:33.390Z,454.00
2023-03-29T01:15:33.458Z,450.00
2023-03-29T01:16:33.649Z,448.00
2023-03-29T01:17:33.611Z,449.00
2023-03-29T01:18:33.628Z,450.00
2023-03-29T01:19:33.680Z,449.00
2023-03-29T01:20:33.724Z,453.00
2023-03-29T01:21:33.778Z,456.00
2023-03-29T01:22:33.843Z,455.00
2023-03-29T01:23:33.881Z,457.00
2023-03-29T01:24:33.932Z,455.00
2023-03-29T01:25:34.019Z,454.00
2023-03-29T01:26:34.070Z,452.00
2023-03-29T01:27:34.143Z,450.00
2023-03-29T01:28:34.193Z,450.00
2023-03-29T01:29:34.264Z,448.00
2023-03-29T01:30:34.294Z,447.00
2023-03-29T01:31:34.368Z,446.00
2023-03-29T01:32:34.400Z,444.00
2023-03-29T01:33:34.469Z,445.00
2023-03-29T01:34:34.513Z,447.00
2023-03-29T01:35:34.599Z,446.00
2023-03-29T01:36:34.607Z,445.00
2023-03-29T01:37:34.677Z,448.00
2023-03-29T01:38:34.746Z,449.00
2023-03-29T01:39:34.860Z,450.00
2023-03-29T01:40:34.842Z,451.00
2023-03-29T01:41:34.885Z,452.00
2023-03-29T01:42:34.929Z,452.00
2023-03-29T01:43:34.982Z,451.00
2023-03-29T01:44:35.034Z,449.00
2023-03-29T01:45:35.098Z,449.00
2023-03-29T01:46:35.187Z,446.00
2023-03-29T01:47:35.233Z,444.00
2023-03-29T01:48:35.279Z,444.00
2023-03-29T01:49:35.310Z,446.00
2023-03-29T01:50:35.386Z,447.00
2023-03-29T01:51:35.411Z,450.00
2023-03-29T01:52:35.464Z,452.00
2023-03-29T01:53:35.540Z,450.00
2023-03-29T01:54:35.571Z,450.00
2023-03-29T01:55:35.634Z,449.00
2023-03-29T01:56:35.681Z,448.00
2023-03-29T01:57:35.751Z,449.00
2023-03-29T01:58:35.808Z,444.00
2023-03-29T01:59:35.862Z,443.00
2023-03-29T02:00:35.908Z,444.00
2023-03-29T02:01:36.094Z,445.00
2023-03-29T02:02:36.079Z,447.00
2023-03-29T02:03:36.147Z,449.00
2023-03-29T02:04:36.132Z,449.00
2023-03-29T02:05:36.207Z,449.00
2023-03-29T02:06:36.266Z,449.00
2023-03-29T02:07:36.303Z,449.00
2023-03-29T02:08:36.373Z,447.00
2023-03-29T02:09:36.420Z,446.00
2023-03-29T02:10:36.520Z,442.00
2023-03-29T02:11:36.552Z,441.00
2023-03-29T02:12:36.609Z,440.00
2023-03-29T02:13:36.667Z,442.00
2023-03-29T02:14:36.712Z,443.00
2023-03-29T02:15:36.781Z,441.00
2023-03-29T02:16:36.832Z,443.00
2023-03-29T02:17:36.905Z,444.00
2023-03-29T02:18:36.924Z,444.00
2023-03-29T02:19:36.987Z,446.00
2023-03-29T02:20:37.032Z,447.00
2023-03-29T02:21:37.106Z,446.00
2023-03-29T02:22:37.208Z,446.00
2023-03-29T02:23:37.290Z,444.00
2023-03-29T02:24:37.260Z,442.00
2023-03-29T02:25:37.316Z,444.00
2023-03-29T02:26:37.403Z,443.00
2023-03-29T02:27:37.453Z,443.00
2023-03-29T02:28:37.511Z,442.00
2023-03-29T02:29:37.557Z,443.00
2023-03-29T02:30:37.651Z,441.00
2023-03-29T02:31:37.751Z,440.00
2023-03-29T02:32:37.822Z,440.00
2023-03-29T02:33:37.797Z,437.00
2023-03-29T02:34:37.867Z,436.00
2023-03-29T02:35:37.989Z,436.00
2023-03-29T02:36:37.967Z,436.00
2023-03-29T02:37:38.035Z,437.00
2023-03-29T02:38:38.087Z,439.00
2023-03-29T02:39:38.138Z,442.00
2023-03-29T02:40:38.207Z,442.00
2023-03-29T02:41:38.234Z,442.00
2023-03-29T02:42:38.298Z,441.00
2023-03-29T02:43:38.372Z,441.00
2023-03-29T02:44:38.415Z,440.00
2023-03-29T02:45:38.552Z,440.00
2023-03-29T02:46:38.546Z,442.00
2023-03-29T02:47:38.623Z,441.00
2023-03-29T02:48:38.651Z,439.00
2023-03-29T02:49:38.700Z,438.00
2023-03-29T02:50:38.762Z,439.00
2023-03-29T02:51:38.821Z,436.00
2023-03-29T02:52:38.882Z,435.00
2023-03-29T02:53:38.967Z,432.00
2023-03-29T02:54:39.015Z,432.00
2023-03-29T02:55:39.078Z,433.00
2023-03-29T02:56:39.154Z,431.00
2023-03-29T02:57:39.179Z,435.00
2023-03-29T02:58:39.263Z,434.00
2023-03-29T02:59:39.314Z,437.00
2023-03-29T03:00:39.386Z,438.00
2023-03-29T03:01:39.452Z,439.00
2023-03-29T03:02:39.548Z,438.00
2023-03-29T03:03:39.622Z,435.00
2023-03-29T03:04:39.597Z,437.00
2023-03-29T03:05:39.647Z,437.00
2023-03-29T03:06:39.725Z,437.00
2023-03-29T03:07:39.878Z,438.00
2023-03-29T03:08:39.847Z,438.00
2023-03-29T03:09:39.889Z,436.00
2023-03-29T03:10:39.958Z,436.00
2023-03-29T03:11:40.018Z,436.00
2023-03-29T03:12:40.074Z,437.00
2023-03-29T03:13:40.131Z,438.00
2023-03-29T03:14:40.208Z,438.00
2023-03-29T03:15:40.257Z,438.00
2023-03-29T03:16:40.367Z,438.00
2023-03-29T03:17:40.417Z,438.00
2023-03-29T03:18:40.421Z,439.00
2023-03-29T03:19:40.485Z,438.00
2023-03-29T03:20:40.552Z,438.00
2023-03-29T03:21:40.587Z,440.00
2023-03-29T03:22:40.636Z,439.00
2023-03-29T03:23:40.692Z,438.00
2023-03-29T03:24:40.757Z,437.00
2023-03-29T03:25:40.827Z,436.00
2023-03-29T03:26:40.884Z,437.00
2023-03-29T03:27:40.911Z,437.00
2023-03-29T03:28:40.968Z,435.00
2023-03-29T03:29:41.142Z,437.00
2023-03-29T03:30:41.092Z,435.00
2023-03-29T03:31:41.216Z,437.00
2023-03-29T03:32:41.248Z,438.00
2023-03-29T03:33:41.262Z,436.00
2023-03-29T03:34:41.318Z,435.00
2023-03-29T03:35:41.383Z,434.00
2023-03-29T03:36:41.441Z,436.00
2023-03-29T03:37:41.500Z,438.00
2023-03-29T03:38:41.550Z,439.00
2023-03-29T03:39:41.605Z,439.00
2023-03-29T03:40:41.644Z,442.00
2023-03-29T03:41:41.742Z,442.00
2023-03-29T03:42:41.798Z,444.00
2023-03-29T03:43:41.814Z,442.00
2023-03-29T03:44:41.897Z,442.00
2023-03-29T03:45:41.935Z,443.00
2023-03-29T03:46:41.974Z,440.00
2023-03-29T03:47:42.075Z,442.00
2023-03-29T03:48:42.083Z,446.00
2023-03-29T03:49:42.126Z,447.00
2023-03-29T03:50:42.213Z,445.00
2023-03-29T03:51:42.260Z,443.00
2023-03-29T03:52:42.297Z,444.00
2023-03-29T03:53:42.387Z,442.00
2023-03-29T03:54:42.421Z,444.00
2023-03-29T03:55:42.461Z,446.00
2023-03-29T03:56:42.526Z,446.00
2023-03-29T03:57:42.574Z,445.00
2023-03-29T03:58:42.670Z,445.00
2023-03-29T03:59:42.691Z,441.00
2023-03-29T04:00:42.774Z,440.00
2023-03-29T04:01:42.823Z,440.00
2023-03-29T04:02:42.952Z,438.00
2023-03-29T04:03:43.066Z,439.00
2023-03-29T04:04:43.000Z,438.00
2023-03-29T04:05:43.057Z,439.00
2023-03-29T04:06:43.884Z,440.00
2023-03-29T04:07:43.174Z,439.00
2023-03-29T04:08:43.246Z,438.00
2023-03-29T04:09:43.287Z,436.00
2023-03-29T04:10:43.354Z,436.00
2023-03-29T04:11:43.409Z,436.00
2023-03-29T04:12:43.459Z,434.00
2023-03-29T04:13:43.527Z,435.00
2023-03-29T04:14:43.569Z,437.00
2023-03-29T04:15:43.655Z,439.00
2023-03-29T04:16:43.772Z,443.00
2023-03-29T04:17:43.852Z,443.00
2023-03-29T04:18:43.917Z,443.00
2023-03-29T04:19:43.847Z,442.00
2023-03-29T04:20:43.914Z,441.00
2023-03-29T04:21:43.943Z,442.00
2023-03-29T04:22:44.005Z,443.00
2023-03-29T04:23:44.057Z,444.00
2023-03-29T04:24:44.134Z,440.00
2023-03-29T04:25:44.154Z,439.00
2023-03-29T04:26:44.228Z,436.00
2023-03-29T04:27:44.281Z,434.00
2023-03-29T04:28:44.355Z,434.00
2023-03-29T04:29:44.411Z,436.00
2023-03-29T04:30:44.453Z,439.00
2023-03-29T04:31:44.561Z,441.00
2023-03-29T04:32:44.595Z,439.00
2023-03-29T04:33:44.634Z,438.00
2023-03-29T04:34:44.706Z,440.00
2023-03-29T04:35:44.766Z,442.00
2023-03-29T04:36:44.801Z,441.00
2023-03-29T04:37:44.866Z,441.00
2023-03-29T04:38:47.578Z,440.00
2023-03-29T04:39:44.949Z,438.00
2023-03-29T04:40:44.924Z,440.00
2023-03-29T04:41:44.903Z,438.00
2023-03-29T04:42:44.912Z,436.00
2023-03-29T04:43:44.901Z,433.00
2023-03-29T04:44:44.901Z,431.00
2023-03-29T04:45:44.882Z,431.00
2023-03-29T04:46:44.902Z,432.00
2023-03-29T04:47:44.909Z,431.00
2023-03-29T04:48:44.865Z,431.00
2023-03-29T04:49:44.857Z,429.00
2023-03-29T04:50:44.830Z,427.00
2023-03-29T04:51:44.833Z,429.00
2023-03-29T04:52:44.833Z,428.00
2023-03-29T04:53:44.820Z,430.00
2023-03-29T04:54:44.819Z,430.00
2023-03-29T04:55:44.802Z,435.00
2023-03-29T04:56:44.845Z,436.00
2023-03-29T04:57:44.793Z,436.00
2023-03-29T04:58:44.804Z,438.00
2023-03-29T04:59:44.803Z,437.00
2023-03-29T05:00:44.760Z,437.00
2023-03-29T05:01:44.811Z,437.00
2023-03-29T05:02:44.801Z,440.00
2023-03-29T05:03:44.768Z,438.00
2023-03-29T05:04:44.768Z,437.00
2023-03-29T05:05:44.739Z,440.00
2023-03-29T05:06:44.732Z,439.00
2023-03-29T05:07:44.727Z,440.00
2023-03-29T05:08:44.745Z,440.00
2023-03-29T05:09:44.698Z,442.00
2023-03-29T05:10:44.689Z,442.00
2023-03-29T05:11:44.698Z,441.00
2023-03-29T05:12:44.675Z,440.00
2023-03-29T05:13:44.696Z,440.00
2023-03-29T05:14:44.728Z,437.00
2023-03-29T05:15:44.776Z,434.00
2023-03-29T05:16:44.889Z,436.00
2023-03-29T05:17:44.915Z,437.00
2023-03-29T05:18:44.967Z,440.00
2023-03-29T05:19:45.016Z,438.00
2023-03-29T05:20:45.076Z,437.00
2023-03-29T05:21:45.737Z,437.00
2023-03-29T05:22:45.185Z,438.00
2023-03-29T05:23:45.267Z,441.00
2023-03-29T05:24:45.311Z,442.00
2023-03-29T05:25:45.831Z,440.00
2023-03-29T05:26:45.453Z,438.00
2023-03-29T05:27:45.498Z,436.00
2023-03-29T05:28:45.540Z,436.00
2023-03-29T05:29:45.596Z,450.00
2023-03-29T05:30:45.768Z,478.00
2023-03-29T05:31:45.748Z,501.00
2023-03-29T05:32:45.774Z,504.00
2023-03-29T05:33:45.783Z,512.00
2023-03-29T05:34:45.812Z,520.00
2023-03-29T05:35:45.854Z,529.00
2023-03-29T05:36:45.872Z,573.00
2023-03-29T05:37:45.931Z,631.00
2023-03-29T05:38:45.938Z,632.00
2023-03-29T05:39:45.990Z,630.00
2023-03-29T05:40:46.007Z,625.00
2023-03-29T05:41:46.025Z,690.00
2023-03-29T05:42:46.071Z,676.00
2023-03-29T05:43:46.112Z,675.00
2023-03-29T05:44:46.110Z,698.00
2023-03-29T05:45:46.171Z,762.00
2023-03-29T05:46:46.152Z,765.00
2023-03-29T05:47:46.199Z,767.00
2023-03-29T05:48:46.178Z,765.00
2023-03-29T05:49:46.184Z,771.00
2023-03-29T05:50:46.419Z,803.00
2023-03-29T05:51:46.225Z,807.00
2023-03-29T05:52:46.214Z,823.00
2023-03-29T05:53:46.253Z,846.00
2023-03-29T05:54:46.253Z,861.00
2023-03-29T05:55:46.274Z,895.00
2023-03-29T05:56:46.310Z,908.00
2023-03-29T05:57:46.265Z,912.00
2023-03-29T05:58:46.278Z,923.00
2023-03-29T05:59:46.288Z,940.00
2023-03-29T06:00:46.297Z,945.00
2023-03-29T06:01:46.282Z,952.00
2023-03-29T06:02:46.343Z,955.00
2023-03-29T06:03:46.475Z,956.00
2023-03-29T06:04:46.313Z,959.00
2023-03-29T06:05:48.385Z,969.00
2023-03-29T06:06:46.246Z,973.00
2023-03-29T06:07:46.248Z,971.00
2023-03-29T06:08:46.238Z,970.00
2023-03-29T06:09:46.226Z,979.00
2023-03-29T06:10:46.253Z,980.00
2023-03-29T06:11:46.208Z,987.00
2023-03-29T06:12:46.201Z,993.00
2023-03-29T06:13:46.204Z,999.00
2023-03-29T06:14:46.205Z,1005.00
2023-03-29T06:15:46.205Z,1016.00
2023-03-29T06:16:46.288Z,1021.00
2023-03-29T06:17:46.188Z,1026.00
2023-03-29T06:18:46.173Z,1032.00
2023-03-29T06:19:46.168Z,1055.00
2023-03-29T06:20:46.150Z,1071.00
2023-03-29T06:21:46.156Z,1076.00
2023-03-29T06:22:46.155Z,1078.00
2023-03-29T06:23:46.138Z,1085.00
2023-03-29T06:24:46.150Z,1093.00
2023-03-29T06:25:46.358Z,1094.00
2023-03-29T06:26:46.124Z,1084.00
2023-03-29T06:27:46.095Z,1076.00
2023-03-29T06:28:46.120Z,1085.00
2023-03-29T06:29:46.098Z,1111.00
2023-03-29T06:30:46.164Z,1119.00
2023-03-29T06:31:46.212Z,1117.00
2023-03-29T06:32:46.091Z,1122.00
2023-03-29T06:33:46.084Z,1144.00
2023-03-29T06:34:46.057Z,1284.00
2023-03-29T06:35:46.096Z,1185.00
2023-03-29T06:36:46.044Z,1205.00
2023-03-29T06:37:46.044Z,1202.00
2023-03-29T06:38:46.031Z,1201.00
2023-03-29T06:39:46.038Z,1207.00
2023-03-29T06:40:46.011Z,1208.00
2023-03-29T06:41:46.019Z,1209.00
2023-03-29T06:42:46.012Z,1211.00
2023-03-29T06:43:46.010Z,1197.00
2023-03-29T06:44:45.997Z,1162.00
2023-03-29T06:45:45.979Z,1126.00
2023-03-29T06:46:46.400Z,1106.00
2023-03-29T06:47:46.293Z,1083.00
2023-03-29T06:48:46.121Z,1084.00
2023-03-29T06:49:46.161Z,1087.00
2023-03-29T06:50:46.216Z,1110.00
2023-03-29T06:51:46.260Z,1117.00
2023-03-29T06:52:46.369Z,1127.00
2023-03-29T06:53:46.367Z,1120.00
2023-03-29T06:54:46.428Z,1114.00
2023-03-29T06:55:46.474Z,1182.00
2023-03-29T06:56:46.565Z,1155.00
2023-03-29T06:57:46.555Z,1220.00
2023-03-29T06:58:46.598Z,1247.00
2023-03-29T06:59:46.633Z,1248.00
2023-03-29T07:00:46.700Z,1188.00
2023-03-29T07:01:46.761Z,1189.00
2023-03-29T07:02:47.064Z,1128.00
2023-03-29T07:03:47.002Z,1255.00
2023-03-29T07:04:46.864Z,1201.00
2023-03-29T07:05:46.880Z,1216.00
2023-03-29T07:06:46.946Z,1243.00
2023-03-29T07:07:47.392Z,1191.00
2023-03-29T07:08:47.010Z,1127.00
2023-03-29T07:09:47.053Z,1144.00
2023-03-29T07:10:47.089Z,1120.00
2023-03-29T07:11:47.171Z,1123.00
2023-03-29T07:12:47.176Z,1139.00
2023-03-29T07:13:47.193Z,1141.00
2023-03-29T07:14:47.248Z,1133.00
2023-03-29T07:15:47.309Z,1187.00
2023-03-29T07:16:47.474Z,1140.00
2023-03-29T07:17:47.376Z,1142.00
2023-03-29T07:18:47.388Z,1143.00
2023-03-29T07:19:47.428Z,1141.00
2023-03-29T07:20:47.486Z,1126.00
2023-03-29T07:21:47.877Z,1131.00
2023-03-29T07:22:47.550Z,1083.00
2023-03-29T07:23:47.574Z,1107.00
2023-03-29T07:24:47.630Z,1112.00
2023-03-29T07:25:47.664Z,1120.00
2023-03-29T07:27:00.054Z,1112.00
2023-03-29T07:27:49.184Z,1212.00
2023-03-29T07:28:47.691Z,1196.00
2023-03-29T07:29:48.361Z,1178.00
2023-03-29T07:30:47.677Z,1204.00
2023-03-29T07:31:47.685Z,1220.00
2023-03-29T07:32:48.262Z,1226.00
2023-03-29T07:33:47.757Z,1213.00
2023-03-29T07:34:47.661Z,1222.00
2023-03-29T07:35:47.684Z,1225.00
2023-03-29T07:36:47.631Z,1233.00
2023-03-29T07:37:47.873Z,1239.00
2023-03-29T07:38:47.661Z,1238.00
2023-03-29T07:39:47.704Z,1235.00
2023-03-29T07:40:47.726Z,1234.00
2023-03-29T07:41:47.769Z,1233.00
2023-03-29T07:42:47.796Z,1225.00
2023-03-29T07:43:47.798Z,1217.00
2023-03-29T07:44:47.892Z,1221.00
2023-03-29T07:45:47.846Z,1221.00
2023-03-29T07:46:47.864Z,1233.00
2023-03-29T07:47:47.895Z,1246.00
2023-03-29T07:48:47.904Z,1247.00
2023-03-29T07:49:48.384Z,1243.00
2023-03-29T07:50:47.931Z,1246.00
2023-03-29T07:51:47.973Z,1245.00
2023-03-29T07:52:47.955Z,1247.00
2023-03-29T07:53:47.977Z,1261.00
2023-03-29T07:54:48.370Z,1259.00
2023-03-29T07:55:48.029Z,1256.00
2023-03-29T07:56:48.057Z,1262.00
2023-03-29T07:57:48.050Z,1272.00
2023-03-29T07:58:48.067Z,1281.00
2023-03-29T07:59:48.397Z,1290.00
2023-03-29T08:00:48.111Z,1294.00
2023-03-29T08:01:48.115Z,1296.00
2023-03-29T08:02:48.164Z,1303.00
2023-03-29T08:03:48.225Z,1304.00
2023-03-29T08:04:48.130Z,1307.00
2023-03-29T08:05:48.124Z,1284.00
2023-03-29T08:06:48.129Z,1272.00
2023-03-29T08:07:48.134Z,1301.00
2023-03-29T08:08:48.131Z,1297.00
2023-03-29T08:09:48.370Z,1263.00
2023-03-29T08:10:48.145Z,1267.00
2023-03-29T08:11:48.200Z,1286.00
2023-03-29T08:12:48.167Z,1294.00
2023-03-29T08:13:48.173Z,1301.00
2023-03-29T08:14:48.428Z,1292.00
2023-03-29T08:15:48.185Z,1214.00
2023-03-29T08:16:48.210Z,1174.00
2023-03-29T08:17:48.273Z,1143.00
2023-03-29T08:18:48.226Z,1128.00
2023-03-29T08:19:51.245Z,1122.00
2023-03-29T08:20:48.382Z,1026.00
2023-03-29T08:21:48.195Z,1112.00
2023-03-29T08:22:48.199Z,1163.00
2023-03-29T08:23:48.170Z,1155.00
2023-03-29T08:24:48.182Z,1131.00
2023-03-29T08:25:48.393Z,1126.00
2023-03-29T08:26:48.163Z,1121.00
2023-03-29T08:27:48.388Z,1066.00
2023-03-29T08:28:48.132Z,1091.00
2023-03-29T08:29:48.149Z,1088.00
2023-03-29T08:30:48.193Z,1090.00
2023-03-29T08:31:48.136Z,1171.00
2023-03-29T08:32:50.483Z,1073.00
2023-03-29T08:33:48.110Z,836.00
2023-03-29T08:34:48.109Z,830.00
2023-03-29T08:35:48.103Z,857.00
2023-03-29T08:36:48.081Z,906.00
2023-03-29T08:37:48.390Z,907.00
2023-03-29T08:38:48.410Z,911.00
2023-03-29T08:39:48.090Z,915.00
2023-03-29T08:40:48.073Z,909.00
2023-03-29T08:41:48.067Z,906.00
2023-03-29T08:42:48.045Z,912.00
2023-03-29T08:43:48.410Z,971.00
2023-03-29T08:44:48.038Z,983.00
2023-03-29T08:45:50.797Z,1004.00
2023-03-29T08:46:48.073Z,1016.00
2023-03-29T08:47:48.074Z,1030.00
2023-03-29T08:48:48.019Z,1046.00
2023-03-29T08:49:48.018Z,1058.00
2023-03-29T08:50:48.079Z,1066.00
2023-03-29T08:51:48.000Z,1069.00
2023-03-29T08:52:47.977Z,1066.00
2023-03-29T08:53:48.000Z,1071.00
2023-03-29T08:54:47.976Z,1074.00
2023-03-29T08:55:47.977Z,1072.00
2023-03-29T08:56:48.001Z,1077.00
2023-03-29T08:57:47.935Z,1096.00
2023-03-29T08:58:47.941Z,1104.00
2023-03-29T08:59:47.940Z,1111.00
2023-03-29T09:00:47.910Z,1126.00
2023-03-29T09:01:48.721Z,1138.00
2023-03-29T09:02:47.924Z,1144.00
2023-03-29T09:03:48.095Z,1152.00
2023-03-29T09:04:47.904Z,1152.00
2023-03-29T09:05:47.894Z,1152.00
2023-03-29T09:06:47.911Z,1155.00
2023-03-29T09:07:47.895Z,1158.00
2023-03-29T09:08:47.942Z,1157.00
2023-03-29T09:09:47.849Z,1163.00
2023-03-29T09:10:47.848Z,1162.00
2023-03-29T09:11:47.847Z,1173.00
2023-03-29T09:12:47.852Z,1181.00
2023-03-29T09:13:47.849Z,1180.00
2023-03-29T09:14:47.823Z,1184.00
2023-03-29T09:15:47.829Z,1193.00
2023-03-29T09:16:47.828Z,1201.00
2023-03-29T09:17:49.683Z,1215.00
2023-03-29T09:18:47.790Z,1223.00
2023-03-29T09:19:47.823Z,1225.00
2023-03-29T09:20:47.787Z,1224.00
2023-03-29T09:21:47.780Z,1209.00
2023-03-29T09:22:47.900Z,1218.00
2023-03-29T09:23:47.771Z,1231.00
2023-03-29T09:24:47.748Z,1231.00
2023-03-29T09:25:53.495Z,1230.00
2023-03-29T09:26:48.726Z,1231.00
2023-03-29T09:27:47.921Z,1220.00
2023-03-29T09:28:47.727Z,1221.00
2023-03-29T09:29:47.718Z,1226.00
2023-03-29T09:30:47.720Z,1198.00
2023-03-29T09:31:47.773Z,1206.00
2023-03-29T09:32:47.992Z,1124.00
2023-03-29T09:33:47.903Z,1124.00
2023-03-29T09:34:47.692Z,1153.00
2023-03-29T09:35:47.721Z,1157.00
2023-03-29T09:36:47.652Z,1167.00
2023-03-29T09:37:47.682Z,1161.00
2023-03-29T09:38:47.649Z,1105.00
2023-03-29T09:39:47.679Z,1048.00
2023-03-29T09:40:47.655Z,1028.00
2023-03-29T09:41:47.620Z,957.00
2023-03-29T09:42:47.625Z,939.00
2023-03-29T09:43:47.650Z,933.00
2023-03-29T09:44:47.613Z,931.00
2023-03-29T09:45:47.661Z,913.00
2023-03-29T09:46:47.586Z,897.00
2023-03-29T09:47:47.666Z,890.00
2023-03-29T09:48:47.923Z,881.00
2023-03-29T09:49:47.565Z,871.00
2023-03-29T09:50:47.580Z,865.00
2023-03-29T09:51:47.564Z,862.00
2023-03-29T09:52:47.554Z,859.00
2023-03-29T09:53:47.532Z,864.00
2023-03-29T09:54:47.537Z,867.00
2023-03-29T09:55:49.098Z,871.00
2023-03-29T09:56:47.547Z,871.00
2023-03-29T09:57:47.517Z,866.00
2023-03-29T09:58:47.503Z,858.00
2023-03-29T09:59:47.521Z,854.00
2023-03-29T10:00:47.511Z,848.00
2023-03-29T10:01:47.560Z,839.00
2023-03-29T10:02:47.530Z,835.00
2023-03-29T10:03:47.943Z,832.00
2023-03-29T10:04:47.921Z,829.00
2023-03-29T10:05:47.446Z,822.00
2023-03-29T10:06:47.448Z,820.00
2023-03-29T10:07:47.449Z,815.00
2023-03-29T10:08:47.437Z,807.00
2023-03-29T10:09:47.436Z,801.00
2023-03-29T10:10:47.420Z,798.00
2023-03-29T10:11:47.393Z,791.00
2023-03-29T10:12:47.399Z,784.00
2023-03-29T10:13:47.382Z,779.00
2023-03-29T10:14:47.375Z,774.00
2023-03-29T10:15:47.364Z,770.00
2023-03-29T10:16:47.405Z,771.00
2023-03-29T10:17:47.426Z,767.00
2023-03-29T10:18:47.358Z,761.00
2023-03-29T10:19:47.425Z,759.00
2023-03-29T10:20:47.328Z,799.00
2023-03-29T10:21:47.313Z,865.00
2023-03-29T10:22:47.317Z,841.00
2023-03-29T10:23:47.308Z,839.00
2023-03-29T10:24:47.444Z,868.00
2023-03-29T10:25:47.322Z,853.00
2023-03-29T10:26:47.296Z,766.00
2023-03-29T10:27:47.313Z,738.00
2023-03-29T10:28:47.293Z,726.00
2023-03-29T10:29:47.277Z,711.00
2023-03-29T10:30:47.270Z,686.00
2023-03-29T10:31:47.309Z,657.00
2023-03-29T10:32:47.340Z,651.00
2023-03-29T10:33:47.241Z,643.00
2023-03-29T10:34:47.235Z,631.00
2023-03-29T10:35:47.262Z,622.00
2023-03-29T10:36:47.219Z,618.00
2023-03-29T10:37:47.220Z,623.00
2023-03-29T10:38:47.216Z,638.00
2023-03-29T10:39:47.218Z,647.00
2023-03-29T10:40:47.557Z,657.00
2023-03-29T10:41:47.215Z,655.00
2023-03-29T10:42:47.206Z,654.00
2023-03-29T10:43:47.216Z,656.00
2023-03-29T10:44:47.180Z,655.00
2023-03-29T10:45:47.224Z,658.00
2023-03-29T10:46:47.250Z,664.00
2023-03-29T10:47:47.225Z,667.00
2023-03-29T10:48:47.156Z,673.00
2023-03-29T10:50:47.140Z,678.00
2023-03-29T10:51:47.120Z,686.00
2023-03-29T10:52:47.137Z,690.00
2023-03-29T10:53:47.106Z,690.00
2023-03-29T10:54:47.104Z,691.00
2023-03-29T10:55:47.095Z,686.00
2023-03-29T10:56:47.128Z,685.00
2023-03-29T10:57:47.111Z,684.00
2023-03-29T10:58:47.090Z,687.00
2023-03-29T10:59:47.457Z,691.00
2023-03-29T11:00:47.081Z,695.00
2023-03-29T11:01:47.137Z,697.00
2023-03-29T11:02:47.121Z,691.00
2023-03-29T11:03:47.224Z,679.00
2023-03-29T11:04:47.476Z,677.00
2023-03-29T11:05:47.036Z,683.00
2023-03-29T11:06:47.036Z,760.00
2023-03-29T11:07:47.012Z,791.00
2023-03-29T11:08:47.025Z,831.00
2023-03-29T11:09:47.063Z,825.00
2023-03-29T11:10:47.098Z,793.00
2023-03-29T11:11:47.164Z,832.00
2023-03-29T11:12:47.198Z,821.00
2023-03-29T11:13:47.235Z,885.00
2023-03-29T11:14:47.449Z,906.00
2023-03-29T11:15:47.488Z,893.00
2023-03-29T11:16:47.400Z,835.00
2023-03-29T11:17:47.532Z,831.00
2023-03-29T11:18:47.435Z,835.00
2023-03-29T11:19:47.475Z,707.00
2023-03-29T11:20:47.513Z,716.00
2023-03-29T11:21:47.549Z,787.00
2023-03-29T11:22:47.623Z,779.00
2023-03-29T11:23:47.690Z,774.00
2023-03-29T11:24:47.728Z,761.00
2023-03-29T11:25:47.745Z,725.00
2023-03-29T11:26:47.751Z,712.00
2023-03-29T11:27:47.767Z,691.00
2023-03-29T11:28:47.784Z,693.00
2023-03-29T11:29:47.783Z,697.00
2023-03-29T11:30:47.900Z,693.00
2023-03-29T11:31:47.903Z,652.00
2023-03-29T11:32:47.879Z,661.00
2023-03-29T11:33:47.831Z,641.00
2023-03-29T11:34:47.818Z,636.00
2023-03-29T11:35:47.865Z,637.00
2023-03-29T11:36:47.828Z,637.00
2023-03-29T11:37:47.830Z,634.00
2023-03-29T11:38:47.832Z,630.00
2023-03-29T11:39:47.849Z,631.00
2023-03-29T11:40:47.877Z,630.00
2023-03-29T11:41:47.888Z,627.00
2023-03-29T11:42:47.946Z,623.00
2023-03-29T11:43:48.031Z,621.00
2023-03-29T11:44:48.064Z,620.00
2023-03-29T11:45:48.167Z,617.00
2023-03-29T11:46:48.227Z,608.00
2023-03-29T11:47:48.250Z,607.00
2023-03-29T11:48:48.325Z,604.00
2023-03-29T11:49:48.353Z,606.00
2023-03-29T11:50:48.410Z,603.00
2023-03-29T11:51:48.485Z,595.00
2023-03-29T11:52:48.539Z,591.00
2023-03-29T11:53:48.598Z,592.00
2023-03-29T11:54:48.653Z,590.00
2023-03-29T11:55:48.985Z,587.00
2023-03-29T11:56:48.872Z,585.00
2023-03-29T11:57:48.978Z,582.00
2023-03-29T11:58:48.913Z,583.00
2023-03-29T11:59:48.906Z,586.00
2023-03-29T12:00:48.941Z,586.00
2023-03-29T12:01:49.029Z,593.00
2023-03-29T12:02:49.579Z,719.00
2023-03-29T12:03:49.161Z,743.00
2023-03-29T12:04:49.126Z,745.00
2023-03-29T12:05:49.167Z,805.00
2023-03-29T12:06:49.214Z,770.00
2023-03-29T12:07:49.224Z,781.00
2023-03-29T12:08:49.276Z,738.00
2023-03-29T12:09:49.320Z,749.00
2023-03-29T12:10:49.324Z,814.00
2023-03-29T12:11:49.352Z,840.00
2023-03-29T12:12:49.466Z,880.00
2023-03-29T12:13:49.405Z,909.00
2023-03-29T12:14:49.411Z,915.00
2023-03-29T12:15:49.443Z,920.00
2023-03-29T12:16:49.457Z,927.00
2023-03-29T12:17:49.499Z,938.00
2023-03-29T12:18:49.483Z,960.00
2023-03-29T12:19:49.437Z,975.00
2023-03-29T12:20:49.448Z,986.00
2023-03-29T12:21:49.446Z,993.00
2023-03-29T12:22:49.449Z,990.00
2023-03-29T12:23:49.457Z,994.00